Terminal Aerodrome Forecast
Issued by NWS

Home | Current Version | Previous Version | Text Only | Print | Product List | Glossary On
Versions: 1 2 3 4 5 6 7 8 9 10 11 12 13 14 15 16 17 18 19 20 21 22 23 24 25 26 27 28 29 30 31 32 33 34 35 36
000
FTUS44 KHGX 231851 AAB
TAFCXO
TAF AMD
KCXO 231851Z 2319/2418 21009KT P6SM VCSH SCT035 SCT045
      TEMPO 2319/2320 -TSRA BKN040CB
     FM232000 20010KT P6SM VCTS FEW040 SCT060CB BKN250
     FM240300 17006KT P6SM VCSH FEW035 BKN170
     FM240900 23003KT 6SM BR FEW025 BKN250
     FM241300 21007KT P6SM BKN025
     FM241600 22010KT P6SM BKN035=

USA.gov is the U.S. government's official web portal to all federal, state and local government web resources and services.